Time;durP1;ratioP1;P1;durP2;ratioP2;P2;SDS_P1;SDS_P2;PMS_P1;PMS_P2;Temp;Humidity;BMP_temperature;BMP_pressure;BME280_temperature;BME280_humidity;BME280_pressure;Samples;Min_cycle;Max_cycle;Signal;HPM_P1;HPM_P2
2023/10/01 00:01:54;;;;;;;16.15;6.50;;;19.30;99.90;;;19.57;74.37;102207.34;4997048;28;20046;-75
2023/10/01 00:04:22;;;;;;;12.27;6.22;;;19.10;99.90;;;19.52;74.71;102202.06;5005589;28;20065;-75
2023/10/01 00:06:52;;;;;;;14.77;6.32;;;19.10;99.90;;;19.46;74.78;102207.56;5006000;28;20129;-76
2023/10/01 00:09:21;;;;;;;13.90;6.80;;;19.00;99.90;;;19.48;74.80;102204.84;5000462;28;20464;-76
2023/10/01 00:11:49;;;;;;;17.15;6.57;;;19.00;99.90;;;19.46;74.83;102196.81;5000553;28;20042;-75
2023/10/01 00:14:20;;;;;;;12.32;6.13;;;19.00;99.90;;;19.40;75.12;102207.69;5007944;28;20492;-76
2023/10/01 00:16:55;;;;;;;14.73;6.63;;;19.00;99.90;;;19.47;75.12;102203.94;5010173;28;20071;-76
2023/10/01 00:19:24;;;;;;;11.98;5.63;;;19.00;99.90;;;19.51;75.13;102199.44;5000427;28;20130;-76
2023/10/01 00:21:53;;;;;;;11.88;6.00;;;19.00;99.90;;;19.53;75.04;102208.34;5010471;28;20507;-76
2023/10/01 00:24:22;;;;;;;14.52;6.45;;;19.00;99.90;;;19.55;74.81;102210.06;5021911;28;20197;-76
2023/10/01 00:26:52;;;;;;;17.65;6.85;;;19.10;99.90;;;19.53;74.24;102201.16;5002444;28;20507;-75
2023/10/01 00:29:22;;;;;;;15.70;6.57;;;19.10;99.90;;;19.54;73.96;102204.72;5012999;28;20133;-75
2023/10/01 00:31:50;;;;;;;15.85;6.85;;;19.10;99.90;;;19.50;73.58;102192.28;5003223;28;20053;-75
2023/10/01 00:34:20;;;;;;;15.55;6.78;;;19.00;99.90;;;19.46;73.69;102191.47;5005832;28;20112;-76
2023/10/01 00:36:49;;;;;;;12.00;6.70;;;19.00;99.90;;;19.47;73.78;102184.28;5011740;28;20048;-76
2023/10/01 00:39:17;;;;;;;24.67;7.50;;;19.00;99.90;;;19.45;73.92;102191.50;5015211;28;20100;-75
2023/10/01 00:41:46;;;;;;;14.10;6.75;;;19.00;99.90;;;19.45;74.00;102191.50;5009469;28;20051;-75
2023/10/01 00:44:15;;;;;;;15.55;6.93;;;19.00;99.90;;;19.46;74.19;102191.47;5022817;28;20042;-76
2023/10/01 00:46:45;;;;;;;19.00;7.53;;;19.00;99.90;;;19.50;74.07;102189.59;5015946;28;20057;-76
2023/10/01 00:49:13;;;;;;;19.17;7.72;;;19.00;99.90;;;19.52;74.09;102190.44;5012931;28;20046;-75
2023/10/01 00:51:43;;;;;;;16.17;7.35;;;19.00;99.90;;;19.46;74.22;102185.19;5004226;28;20069;-74
2023/10/01 00:54:12;;;;;;;19.10;7.32;;;19.00;99.90;;;19.46;74.29;102182.50;5004026;28;20093;-75
2023/10/01 00:56:44;;;;;;;22.10;7.25;;;19.00;99.90;;;19.40;74.18;102198.72;5011349;28;20482;-75
2023/10/01 00:59:14;;;;;;;16.55;7.40;;;19.00;99.90;;;19.33;74.70;102192.63;4999097;28;20081;-75
2023/10/01 01:01:44;;;;;;;14.32;7.15;;;18.90;99.90;;;19.30;74.71;102183.72;5021650;28;20061;-75
2023/10/01 01:04:19;;;;;;;13.60;7.13;;;18.90;99.90;;;19.28;74.98;102180.19;5008881;28;20045;-76
2023/10/01 01:06:49;;;;;;;16.58;7.32;;;18.80;99.90;;;19.26;75.11;102177.50;5014327;28;20058;-76
2023/10/01 01:09:20;;;;;;;20.90;8.10;;;18.80;99.90;;;19.22;75.35;102175.78;5008584;28;20443;-75
2023/10/01 01:11:50;;;;;;;16.38;7.70;;;18.80;99.90;;;19.28;75.81;102177.50;5020337;28;20049;-76
2023/10/01 01:14:21;;;;;;;16.75;7.20;;;18.80;99.90;;;19.28;75.85;102174.81;4998037;28;20148;-76
2023/10/01 01:16:51;;;;;;;22.88;8.25;;;18.80;99.90;;;19.24;76.03;102171.28;5026018;28;20051;-76
2023/10/01 01:19:20;;;;;;;16.60;7.75;;;18.80;99.90;;;19.21;76.21;102173.13;5002790;28;20050;-76
2023/10/01 01:21:50;;;;;;;19.90;7.78;;;18.80;99.90;;;19.22;76.36;102172.25;5002992;28;20391;-76
2023/10/01 01:24:20;;;;;;;21.02;8.38;;;18.70;99.90;;;19.25;76.59;102158.75;5010926;28;20466;-75
2023/10/01 01:26:51;;;;;;;16.42;7.97;;;18.70;99.90;;;19.22;76.82;102158.81;4999913;28;20420;-76
2023/10/01 01:29:29;;;;;;;19.52;8.77;;;18.80;99.90;;;19.13;77.05;102151.81;5013600;28;20057;-75
2023/10/01 01:32:07;;;;;;;18.45;8.82;;;18.70;99.90;;;19.14;77.19;102152.72;5014648;28;20339;-75
2023/10/01 01:34:36;;;;;;;16.95;8.25;;;18.70;99.90;;;19.14;77.31;102160.75;5010152;28;20088;-76
2023/10/01 01:37:06;;;;;;;19.77;9.18;;;18.70;99.90;;;19.14;77.31;102150.94;5002474;28;20120;-76
2023/10/01 01:39:48;;;;;;;18.33;9.02;;;18.70;99.90;;;19.18;77.14;102154.44;5001800;28;20153;-75
2023/10/01 01:42:21;;;;;;;20.38;9.27;;;18.70;99.90;;;19.22;76.95;102159.69;5010345;28;20046;-76
2023/10/01 01:45:14;;;;;;;20.15;9.45;;;18.80;99.90;;;19.19;76.91;102153.50;5001590;28;20115;-75
2023/10/01 01:47:39;;;;;;;20.58;9.43;;;18.70;99.90;;;19.24;76.92;102151.63;5000091;28;20104;-75
2023/10/01 01:50:18;;;;;;;18.88;9.68;;;18.80;99.90;;;19.25;76.98;102151.59;5025935;28;20137;-76
2023/10/01 01:52:49;;;;;;;17.23;9.27;;;18.80;99.90;;;19.29;76.79;102141.69;5001959;28;20045;-76
2023/10/01 01:55:26;;;;;;;18.27;9.30;;;18.80;99.90;;;19.20;77.04;102145.41;5002113;28;20069;-75
2023/10/01 01:58:08;;;;;;;20.85;8.75;;;18.80;99.90;;;19.27;77.01;102147.09;5009414;28;20057;-75
2023/10/01 02:00:47;;;;;;;16.90;8.52;;;18.80;99.90;;;19.23;77.18;102147.16;5000216;28;20070;-75
2023/10/01 02:03:17;;;;;;;18.02;8.38;;;18.80;99.90;;;19.16;77.54;102132.09;5016735;28;20060;-75
2023/10/01 02:05:47;;;;;;;;;;;18.80;99.90;;;19.15;78.01;102141.06;5010625;28;20046;-76
2023/10/01 02:08:24;;;;;;;17.75;9.65;;;18.70;99.90;;;19.15;78.09;102141.94;4999703;28;19937;-75
2023/10/01 02:10:56;;;;;;;20.50;8.90;;;18.70;99.90;;;19.14;78.36;102152.72;5018845;28;20399;-76
2023/10/01 02:13:26;;;;;;;18.45;8.98;;;18.70;99.90;;;19.13;78.49;102133.03;5009047;28;20046;-76
2023/10/01 02:15:55;;;;;;;18.75;9.57;;;18.70;99.90;;;19.15;78.38;102133.00;4996321;28;20384;-76
2023/10/01 02:18:26;;;;;;;17.30;8.70;;;18.70;99.90;;;19.19;78.68;102132.94;5005200;28;20100;-76
2023/10/01 02:20:56;;;;;;;;;;;18.70;99.90;;;19.23;78.71;102140.00;5006511;28;20153;-76
2023/10/01 02:23:32;;;;;;;23.42;9.57;;;18.80;99.90;;;19.23;78.78;102133.75;4997693;28;20415;-75
2023/10/01 02:26:06;;;;;;;15.40;8.55;;;18.80;99.90;;;19.22;78.81;102137.34;5008279;28;20054;-76
2023/10/01 02:28:36;;;;;;;17.55;8.93;;;18.70;99.90;;;19.16;79.30;102132.09;5003958;28;20106;-75
2023/10/01 02:31:08;;;;;;;20.42;9.57;;;18.70;99.90;;;19.18;79.45;102138.34;4999440;28;20125;-76
2023/10/01 02:33:55;;;;;;;20.63;9.35;;;18.70;99.90;;;19.16;79.56;102141.06;5010324;28;20050;-75
2023/10/01 02:36:24;;;;;;;18.90;9.38;;;18.70;99.90;;;19.16;79.75;102137.47;5002832;28;20495;-75
2023/10/01 02:38:53;;;;;;;19.40;9.63;;;18.70;99.90;;;19.15;80.04;102139.25;4999409;28;20416;-75
2023/10/01 02:41:26;;;;;;;18.95;9.77;;;18.70;99.90;;;19.14;80.17;102128.56;5009232;28;20045;-76
2023/10/01 02:43:55;;;;;;;20.63;9.85;;;18.70;99.90;;;19.12;80.08;102136.66;4998877;28;20380;-75
2023/10/01 02:46:27;;;;;;;17.83;9.73;;;18.70;99.90;;;19.10;80.60;102132.22;5001125;28;20042;-76
2023/10/01 02:48:59;;;;;;;18.48;9.45;;;18.70;99.90;;;18.96;80.44;102105.66;5009136;28;20058;-75
2023/10/01 02:51:37;;;;;;;17.75;9.40;;;18.60;99.90;;;19.15;80.58;102124.97;5008998;28;20153;-76
2023/10/01 02:54:05;;;;;;;18.95;9.52;;;18.70;99.90;;;19.14;80.61;102125.88;5002778;28;20046;-75
2023/10/01 02:56:52;;;;;;;16.58;9.48;;;18.70;99.90;;;19.21;80.37;102125.72;4998509;28;20058;-76
2023/10/01 02:59:20;;;;;;;21.00;9.70;;;18.70;99.90;;;19.19;80.51;102130.25;4997426;28;20064;-75
2023/10/01 03:01:49;;;;;;;16.98;9.52;;;18.80;99.90;;;19.25;80.56;102132.81;5011617;28;20053;-75
2023/10/01 03:04:17;;;;;;;18.90;9.60;;;18.80;99.90;;;19.29;80.34;102133.63;5001337;28;20133;-75
2023/10/01 03:06:53;;;;;;;22.25;10.20;;;18.80;99.90;;;19.24;80.37;102127.47;5024704;28;20467;-75
2023/10/01 03:09:31;;;;;;;21.60;10.25;;;18.80;99.90;;;19.30;80.48;102127.38;4998812;28;20058;-75
2023/10/01 03:15:15;;;;;;;21.67;10.43;;;18.80;99.90;;;19.33;80.50;102116.59;4996511;28;20464;-75
2023/10/01 03:17:56;;;;;;;19.25;9.98;;;18.90;99.90;;;19.34;80.27;102123.72;5003872;28;20053;-76
2023/10/01 03:23:24;;;;;;;23.90;10.05;;;18.90;99.90;;;19.33;80.51;102120.16;4998581;28;20041;-76
2023/10/01 03:26:00;;;;;;;17.27;9.55;;;18.90;99.90;;;19.32;80.50;102120.13;5012623;28;20077;-75
2023/10/01 03:28:35;;;;;;;22.27;10.43;;;18.90;99.90;;;19.41;80.60;102122.69;4996931;28;20069;-75
2023/10/01 03:31:08;;;;;;;20.63;9.52;;;18.90;99.90;;;19.41;80.37;102122.69;5007786;28;20043;-76
2023/10/01 03:33:38;;;;;;;18.73;9.55;;;18.90;99.90;;;19.40;80.16;102123.59;5002924;28;20466;-76
2023/10/01 03:36:10;;;;;;;18.05;10.20;;;18.90;99.90;;;19.25;80.46;102100.63;4998361;28;20512;-76
2023/10/01 03:38:40;;;;;;;16.05;8.93;;;18.90;99.90;;;19.40;80.47;102113.75;5008900;28;20061;-76
2023/10/01 03:41:09;;;;;;;23.10;10.90;;;18.90;99.90;;;19.43;80.51;102118.16;4999197;28;20065;-76
2023/10/01 03:43:42;;;;;;;19.38;9.40;;;18.90;99.90;;;19.42;80.57;102114.59;5000398;28;20404;-75
2023/10/01 03:46:14;;;;;;;20.40;9.73;;;19.00;99.90;;;19.40;80.47;102102.13;5008527;28;20057;-76
2023/10/01 03:49:00;;;;;;;26.40;10.43;;;19.00;99.90;;;19.34;80.75;102113.88;5007614;28;20069;-76
2023/10/01 03:54:19;;;;;;;23.95;10.40;;;18.90;99.90;;;19.46;80.69;102113.63;4996422;28;20467;-75
2023/10/01 03:56:56;;;;;;;17.67;9.77;;;19.00;99.90;;;19.46;80.79;102110.94;5005827;28;20062;-75
2023/10/01 03:59:32;;;;;;;22.00;10.40;;;19.00;99.90;;;19.47;80.65;102127.94;5003938;28;20065;-76
2023/10/01 04:02:02;;;;;;;18.38;9.90;;;19.00;99.90;;;19.49;80.59;102116.22;4996044;28;20043;-76
2023/10/01 04:04:56;;;;;;;19.17;9.55;;;19.00;99.90;;;19.50;80.57;102122.47;5007692;28;20572;-76
2023/10/01 04:07:22;;;;;;;19.38;9.80;;;19.00;99.90;;;19.49;80.59;102112.69;5003989;28;20064;-76
2023/10/01 04:09:51;;;;;;;19.67;10.10;;;19.10;99.90;;;19.48;80.67;102109.09;4996132;28;20046;-76
2023/10/01 04:12:27;;;;;;;21.65;9.95;;;19.10;99.90;;;19.48;80.58;102118.94;5007459;28;20042;-76
2023/10/01 04:15:01;;;;;;;19.42;9.73;;;19.10;99.90;;;19.47;80.73;102117.19;5002081;28;20126;-76
2023/10/01 04:17:35;;;;;;;20.17;11.00;;;19.00;99.90;;;19.48;80.84;102108.22;4997937;28;20125;-75
2023/10/01 04:20:12;;;;;;;22.17;10.77;;;19.00;99.90;;;19.48;80.85;102100.16;5008385;28;20496;-75
2023/10/01 04:22:41;;;;;;;19.45;9.55;;;19.00;99.90;;;19.46;80.86;102102.00;5000665;28;20038;-75
2023/10/01 04:25:12;;;;;;;16.52;9.38;;;19.00;99.90;;;19.46;80.96;102102.88;4999832;28;20523;-75
2023/10/01 04:27:45;;;;;;;21.08;10.02;;;19.00;99.90;;;19.47;80.78;102106.47;5008089;28;20059;-76
2023/10/01 04:30:15;;;;;;;21.30;9.80;;;19.00;99.90;;;19.47;80.94;102112.69;5013092;28;20089;-75
2023/10/01 04:32:46;;;;;;;18.13;9.57;;;19.00;99.90;;;19.51;80.98;102098.28;5001940;28;20053;-74
2023/10/01 04:35:15;;;;;;;18.17;9.77;;;19.00;99.90;;;19.48;80.86;102108.22;5007045;28;20050;-75
2023/10/01 04:37:51;;;;;;;20.92;10.35;;;19.00;99.90;;;19.45;80.98;102106.47;4996459;28;20042;-75
2023/10/01 04:40:39;;;;;;;;;;;19.00;99.90;;;19.42;81.08;102102.97;5020166;28;20582;-76
2023/10/01 04:43:10;;;;;;;22.40;10.13;;;19.00;99.90;;;19.41;81.35;102095.84;5006498;28;20321;-76
2023/10/01 04:45:41;;;;;;;23.48;10.82;;;19.00;99.90;;;19.39;81.32;102108.41;4995742;28;20133;-75
2023/10/01 04:48:20;;;;;;;21.85;10.85;;;18.90;99.90;;;19.34;81.22;102104.91;5004795;28;20054;-75
2023/10/01 04:50:50;;;;;;;20.73;10.18;;;18.90;99.90;;;19.34;81.41;102112.97;5004958;28;20423;-75
2023/10/01 04:53:20;;;;;;;19.25;10.07;;;18.90;99.90;;;19.30;81.31;102114.81;4997325;28;20078;-76
2023/10/01 04:56:00;;;;;;;20.30;10.32;;;18.90;99.90;;;19.32;81.60;102120.13;5010026;28;20098;-75
2023/10/01 04:58:32;;;;;;;21.95;10.13;;;18.80;99.90;;;19.27;81.73;102097.88;5006397;28;20108;-75
2023/10/01 05:01:05;;;;;;;17.65;10.15;;;18.90;99.90;;;19.27;81.49;102114.00;4999024;28;20057;-76
2023/10/01 05:03:39;;;;;;;25.10;10.27;;;18.80;99.90;;;19.06;81.66;102074.19;4999163;28;20384;-75
2023/10/01 05:06:11;;;;;;;20.63;10.88;;;18.80;99.90;;;19.17;82.10;102096.31;5015051;28;20041;-75
2023/10/01 05:08:40;;;;;;;21.20;11.07;;;18.80;99.90;;;19.20;82.14;102097.13;5001382;28;20130;-76
2023/10/01 05:11:11;;;;;;;20.88;10.98;;;18.70;99.90;;;19.21;82.10;102096.22;5011642;28;20041;-76
2023/10/01 05:13:41;;;;;;;22.15;11.50;;;18.80;99.90;;;19.21;82.33;102104.28;5016534;28;20499;-76
2023/10/01 05:16:13;;;;;;;22.33;11.15;;;18.70;99.90;;;19.28;82.14;102107.72;5004824;28;20054;-75
2023/10/01 05:18:43;;;;;;;25.15;10.85;;;18.80;99.90;;;19.29;82.08;102120.22;5010126;28;20045;-76
2023/10/01 05:21:13;;;;;;;19.17;11.40;;;18.80;99.90;;;19.31;82.03;102126.44;4998663;28;20093;-76
2023/10/01 05:23:42;;;;;;;23.13;11.15;;;18.90;99.90;;;19.33;81.67;102116.59;5007281;28;20081;-76
2023/10/01 05:26:11;;;;;;;19.35;10.63;;;18.90;99.90;;;19.31;81.84;102124.63;5006497;28;20045;-76
2023/10/01 05:28:42;;;;;;;20.88;11.40;;;18.90;99.90;;;19.38;82.11;102114.69;4999003;28;20411;-75
2023/10/01 05:31:15;;;;;;;21.42;10.38;;;18.90;99.90;;;19.39;81.93;102124.50;4999316;28;20479;-75
2023/10/01 05:33:45;;;;;;;21.67;10.57;;;18.90;99.90;;;19.33;82.25;102114.78;5014673;28;20050;-76
2023/10/01 05:36:16;;;;;;;;;;;18.90;99.90;;;19.24;82.18;102106.00;5001775;28;20050;-75
2023/10/01 05:38:45;;;;;;;21.38;12.10;;;18.90;99.90;;;19.37;82.35;102119.19;5010848;28;20335;-76
2023/10/01 05:41:15;;;;;;;21.48;10.95;;;18.90;99.90;;;19.40;82.36;102115.53;5001349;28;20066;-75
2023/10/01 05:43:50;;;;;;;20.48;11.57;;;18.90;99.90;;;19.46;82.37;102118.09;5004587;28;20129;-76
2023/10/01 05:46:22;;;;;;;19.38;11.02;;;19.00;99.90;;;19.42;82.38;102124.44;5010248;28;20407;-76
2023/10/01 05:48:55;;;;;;;22.30;11.10;;;18.90;99.90;;;19.35;82.54;102126.38;4998866;28;20081;-74
2023/10/01 05:51:30;;;;;;;22.00;11.27;;;18.90;99.90;;;19.36;82.57;102122.78;5026585;28;20496;-75
2023/10/01 05:53:59;;;;;;;21.05;10.88;;;18.90;99.90;;;19.38;82.59;102125.41;5008191;28;20073;-75
2023/10/01 05:56:36;;;;;;;22.13;12.00;;;18.90;99.90;;;19.37;82.71;102124.56;4998641;28;20133;-76
2023/10/01 05:59:06;;;;;;;22.77;11.68;;;18.90;99.90;;;19.35;82.91;102115.66;5007898;28;20049;-76
2023/10/01 06:01:36;;;;;;;21.83;12.05;;;18.90;99.90;;;19.41;82.86;102130.75;5005794;28;20041;-75
2023/10/01 06:04:09;;;;;;;21.88;12.23;;;18.90;99.90;;;19.39;83.13;102125.41;4997182;28;20039;-75
2023/10/01 06:06:38;;;;;;;18.98;11.25;;;18.90;99.90;;;19.47;82.93;102117.19;4996405;28;20133;-75
2023/10/01 06:09:09;;;;;;;19.75;12.10;;;19.00;99.90;;;19.50;82.62;102114.44;5012173;28;20046;-76
2023/10/01 06:11:42;;;;;;;24.75;12.60;;;19.00;99.90;;;19.53;82.57;102122.44;5000834;28;20049;-74
2023/10/01 06:14:29;;;;;;;26.70;12.82;;;19.00;99.90;;;19.64;82.21;102129.34;5010827;28;20050;-75
2023/10/01 06:17:00;;;;;;;25.70;12.95;;;19.10;99.90;;;19.66;81.66;102116.78;5001902;28;20053;-75
2023/10/01 06:19:32;;;;;;;21.83;11.77;;;19.30;99.90;;;19.80;80.98;102121.84;5001366;28;20066;-75
2023/10/01 06:22:13;;;;;;;24.50;11.75;;;19.50;99.90;;;20.05;80.34;102139.16;5010120;28;20121;-75
2023/10/01 06:24:43;;;;;;;21.05;12.25;;;19.60;99.90;;;20.09;79.48;102107.72;5001074;28;20053;-75
2023/10/01 06:27:13;;;;;;;24.27;13.10;;;19.80;99.90;;;20.38;78.97;102135.69;5002527;28;20126;-75
2023/10/01 06:29:49;;;;;;;27.83;12.63;;;19.90;99.90;;;20.57;78.34;102139.72;5009099;28;20053;-75
2023/10/01 06:32:22;;;;;;;25.58;12.57;;;20.10;99.90;;;20.80;77.53;102138.22;4998385;28;20058;-75
2023/10/01 06:34:53;;;;;;;24.02;12.10;;;20.30;99.90;;;20.97;76.46;102127.88;5004642;28;20082;-75
2023/10/01 06:37:22;;;;;;;26.00;12.25;;;20.50;99.90;;;21.20;75.63;102126.38;5006234;28;20077;-74
2023/10/01 06:39:51;;;;;;;22.27;11.90;;;20.70;99.90;;;21.48;74.61;102118.38;4997515;28;20038;-76
2023/10/01 06:42:19;;;;;;;24.15;12.07;;;21.00;99.90;;;21.67;73.72;102119.59;5007187;28;20073;-76
2023/10/01 06:44:53;;;;;;;21.30;11.98;;;21.20;99.90;;;21.79;72.63;102119.22;5002767;28;20080;-76
2023/10/01 06:47:26;;;;;;;22.30;11.63;;;21.40;99.90;;;21.97;72.11;102126.75;4998318;28;20499;-75
2023/10/01 06:50:07;;;;;;;23.75;13.13;;;21.50;99.90;;;22.16;71.37;102119.84;5009657;28;20555;-76
2023/10/01 06:52:41;;;;;;;23.67;12.55;;;21.70;99.90;;;22.25;71.05;102126.78;5002842;28;20042;-76
2023/10/01 06:55:25;;;;;;;25.98;12.57;;;21.80;99.90;;;22.19;70.92;102138.63;4999072;28;20057;-73
2023/10/01 06:57:56;;;;;;;20.77;12.90;;;21.80;99.90;;;22.24;70.49;102138.50;4997807;28;20104;-73
2023/10/01 07:00:24;;;;;;;22.73;12.40;;;21.80;99.90;;;22.22;70.50;102125.03;5013024;28;20045;-73
2023/10/01 07:03:13;;;;;;;19.58;11.70;;;21.80;99.90;;;22.28;70.38;102134.75;4999909;28;20070;-73
2023/10/01 07:05:42;;;;;;;23.08;12.73;;;21.80;99.90;;;22.26;70.42;102134.81;5009250;28;20483;-77
2023/10/01 07:08:11;;;;;;;26.02;12.75;;;21.80;99.90;;;22.24;70.35;102136.66;5000920;28;20050;-76
2023/10/01 07:10:40;;;;;;;23.65;12.05;;;21.80;99.90;;;22.44;70.16;102139.59;5000548;28;20420;-75
2023/10/01 07:13:10;;;;;;;25.40;12.43;;;22.00;99.90;;;22.61;69.82;102143.59;5008581;28;20038;-75
2023/10/01 07:15:43;;;;;;;21.10;12.30;;;22.20;99.90;;;22.67;69.65;102146.94;4994942;28;20065;-73
2023/10/01 07:18:19;;;;;;;22.23;12.45;;;22.30;99.90;;;22.86;68.96;102156.19;5012303;28;20366;-80
2023/10/01 07:20:49;;;;;;;27.45;13.02;;;22.50;99.90;;;23.01;68.31;102158.38;4997983;28;20109;-78
2023/10/01 07:23:21;;;;;;;21.05;12.15;;;22.60;99.90;;;23.23;67.60;102151.25;5009226;28;20065;-74
2023/10/01 07:26:00;;;;;;;18.98;11.23;;;22.90;99.90;;;23.37;66.92;102128.28;4999882;28;20044;-75
2023/10/01 07:28:30;;;;;;;20.92;12.25;;;23.00;99.90;;;23.64;65.83;102171.34;4999920;28;20050;-77
2023/10/01 07:31:02;;;;;;;20.85;12.07;;;23.20;99.90;;;23.88;65.27;102159.63;5008846;28;20038;-81
2023/10/01 07:33:33;;;;;;;22.85;12.18;;;23.40;99.90;;;24.09;64.61;102157.94;4998586;28;20057;-76
2023/10/01 07:36:10;;;;;;;21.17;11.57;;;23.70;99.90;;;24.17;64.15;102166.63;5003032;28;20064;-78
2023/10/01 07:38:48;;;;;;;22.23;12.40;;;23.80;99.90;;;24.16;63.95;102159.44;5007911;28;20133;-76
2023/10/01 07:41:20;;;;;;;21.73;12.32;;;23.80;99.90;;;23.99;63.89;102161.88;4996289;28;20492;-76
2023/10/01 07:43:49;;;;;;;21.42;12.55;;;23.70;99.90;;;23.72;64.84;102158.44;5003423;28;20046;-74
2023/10/01 07:46:18;;;;;;;21.95;12.95;;;23.40;99.90;;;23.63;65.15;102157.91;5006133;28;20042;-78
2023/10/01 07:48:51;;;;;;;19.93;12.10;;;23.20;99.90;;;23.40;65.26;102150.69;5011565;28;20050;-73
2023/10/01 07:51:27;;;;;;;22.92;12.88;;;23.00;99.90;;;23.27;66.24;102150.19;5006418;28;20341;-73
2023/10/01 07:53:59;;;;;;;23.88;13.35;;;22.80;99.90;;;23.08;66.98;102127.50;5003553;28;20089;-73
2023/10/01 07:56:28;;;;;;;25.13;12.85;;;22.70;99.90;;;23.18;67.98;102141.53;4996139;28;20130;-72
2023/10/01 08:01:43;;;;;;;22.63;13.13;;;22.80;99.90;;;23.05;67.82;102154.59;5012571;28;20096;-70
2023/10/01 08:07:05;;;;;;;21.95;13.55;;;22.50;99.90;;;22.74;68.35;102147.63;4997066;28;20054;-73
2023/10/01 08:09:39;;;;;;;22.30;12.63;;;22.30;99.90;;;22.79;69.09;102148.34;5002098;28;20403;-72
2023/10/01 08:12:07;;;;;;;24.02;13.45;;;22.30;99.90;;;22.64;70.08;102125.47;5007068;28;20064;-67
2023/10/01 08:14:35;;;;;;;25.45;12.90;;;22.30;99.90;;;22.87;70.03;102149.84;4995381;28;20124;-67
2023/10/01 08:17:05;;;;;;;22.55;12.40;;;22.40;99.90;;;22.98;69.68;102144.97;5019842;28;20056;-67
2023/10/01 08:19:45;;;;;;;20.33;12.50;;;22.50;99.90;;;22.96;69.43;102141.44;5003155;28;20407;-67
2023/10/01 08:22:22;;;;;;;21.08;12.15;;;22.60;99.90;;;23.05;68.74;102148.34;4996186;28;20061;-66
2023/10/01 08:24:51;;;;;;;20.58;12.23;;;22.60;99.90;;;23.33;68.84;102154.53;5006251;28;20602;-66
2023/10/01 08:27:33;;;;;;;23.25;12.25;;;22.90;99.90;;;23.53;67.74;102151.97;5003314;28;20064;-65
2023/10/01 08:30:18;;;;;;;22.20;12.00;;;23.10;99.90;;;23.50;67.44;102152.06;4999652;28;20113;-65
2023/10/01 08:32:49;;;;;;;20.40;11.15;;;23.10;99.90;;;23.62;66.97;102151.63;5009322;28;20047;-65
2023/10/01 08:35:29;;;;;;;22.33;11.85;;;23.20;99.90;;;23.51;66.84;102140.34;5006835;28;20064;-66
2023/10/01 08:38:00;;;;;;;24.55;12.70;;;23.20;99.90;;;23.41;66.87;102143.44;4999453;28;20069;-66
2023/10/01 08:40:29;;;;;;;20.05;12.07;;;23.00;99.90;;;23.22;67.05;102133.28;5010633;28;20425;-65
2023/10/01 08:42:58;;;;;;;22.75;12.38;;;22.90;99.90;;;23.35;67.59;102158.06;5005058;28;20042;-64
2023/10/01 08:45:37;;;;;;;19.92;11.52;;;22.90;99.90;;;23.37;67.48;102141.78;5001986;28;20077;-64
2023/10/01 08:48:08;;;;;;;20.55;11.50;;;23.00;99.90;;;23.62;66.91;102159.72;5011914;28;20042;-64
2023/10/01 08:50:41;;;;;;;23.92;12.00;;;23.20;99.90;;;23.74;66.09;102148.44;5003631;28;20046;-65
2023/10/01 08:53:11;;;;;;;21.35;12.15;;;23.30;99.90;;;23.94;66.50;102151.25;5003477;28;20042;-64
2023/10/01 08:56:04;;;;;;;21.33;12.27;;;23.50;99.90;;;24.21;65.75;102152.03;5011759;28;20157;-64
2023/10/01 08:58:41;;;;;;;21.35;12.27;;;23.70;99.90;;;24.38;64.44;102170.28;5002826;28;20096;-64
2023/10/01 09:01:14;;;;;;;19.93;11.50;;;24.00;99.90;;;24.49;63.96;102173.41;5017654;28;20145;-65
2023/10/01 09:03:47;;;;;;;22.58;11.93;;;24.10;99.90;;;24.62;63.81;102172.84;5011524;28;20321;-65
2023/10/01 09:06:26;;;;;;;20.50;11.77;;;24.20;99.90;;;24.80;63.38;102163.09;5002018;28;20050;-66
2023/10/01 09:09:26;;;;;;;20.45;11.93;;;24.40;99.90;;;24.81;62.93;102165.75;5002730;28;20407;-65
2023/10/01 09:11:58;;;;;;;21.00;12.05;;;24.40;99.90;;;25.11;62.45;102170.75;5010067;28;20055;-65
2023/10/01 09:14:38;;;;;;;21.95;11.27;;;24.70;99.90;;;25.32;62.20;102159.00;5004156;28;20427;-67
2023/10/01 09:17:25;;;;;;;21.95;11.38;;;24.90;99.90;;;25.51;61.24;102168.09;5000261;28;20105;-68
2023/10/01 09:20:06;;;;;;;24.63;12.60;;;25.10;99.90;;;25.62;60.96;102163.94;5009724;28;20042;-68
2023/10/01 09:22:42;;;;;;;21.75;11.65;;;25.20;99.90;;;25.70;60.23;102160.88;5005873;28;20057;-68
2023/10/01 09:25:25;;;;;;;20.13;12.07;;;25.30;99.90;;;25.87;60.19;102166.38;4998563;28;20058;-69
2023/10/01 09:27:57;;;;;;;18.38;11.18;;;25.40;99.90;;;25.89;60.34;102159.94;5000754;28;20046;-67
2023/10/01 09:30:31;;;;;;;19.20;11.55;;;25.50;99.90;;;25.94;59.84;102174.16;5014654;28;20047;-67
2023/10/01 09:33:05;;;;;;;20.00;11.10;;;25.50;99.90;;;26.02;59.57;102162.03;4999417;28;20053;-71
2023/10/01 09:35:49;;;;;;;22.13;11.38;;;25.60;99.90;;;25.52;59.15;102067.72;5011046;28;20042;-68
2023/10/01 09:38:27;;;;;;;18.83;11.20;;;25.70;99.90;;;26.23;58.91;102166.50;5005708;28;20484;-67
2023/10/01 09:40:57;;;;;;;23.10;10.98;;;25.70;99.90;;;26.35;58.37;102161.34;4998910;28;20460;-67
2023/10/01 09:43:29;;;;;;;;;;;25.90;99.90;;;26.31;58.14;102164.25;4999034;28;20090;-65
2023/10/01 09:46:00;;;;;;;22.88;10.98;;;25.90;99.90;;;26.44;58.23;102157.28;5013316;28;20350;-66
2023/10/01 09:48:36;;;;;;;19.38;11.45;;;26.00;99.90;;;26.53;58.00;102162.25;5000974;28;20050;-66
2023/10/01 09:51:13;;;;;;;21.45;11.60;;;26.10;99.90;;;26.70;58.12;102160.47;5010987;28;20080;-67
2023/10/01 09:54:00;;;;;;;20.08;11.32;;;26.30;99.90;;;26.85;57.83;102164.25;5001935;28;20042;-67
2023/10/01 09:56:31;;;;;;;20.23;11.88;;;26.40;99.90;;;27.12;57.13;102170.97;5000336;28;20133;-67
2023/10/01 09:59:03;;;;;;;19.75;10.98;;;26.70;99.90;;;27.26;57.06;102153.91;5010901;28;20046;-67
2023/10/01 10:01:35;;;;;;;17.98;10.43;;;26.90;99.90;;;27.37;55.90;102157.84;5001239;28;20042;-67
2023/10/01 10:04:06;;;;;;;19.60;10.85;;;27.00;99.90;;;27.43;56.19;102167.53;5002375;28;20046;-65
2023/10/01 10:06:38;;;;;;;18.65;10.70;;;27.00;99.90;;;27.62;55.58;102166.44;5025611;28;20080;-67
2023/10/01 10:09:25;;;;;;;22.40;11.35;;;27.20;99.90;;;27.67;55.26;102166.19;4998716;28;20139;-67
2023/10/01 10:11:54;;;;;;;20.92;11.20;;;27.30;99.90;;;27.44;54.33;102166.56;5013856;28;20045;-67
2023/10/01 10:14:45;;;;;;;22.58;11.27;;;27.10;99.90;;;27.31;54.84;102158.16;4998550;28;20471;-66
2023/10/01 10:17:25;;;;;;;19.90;11.20;;;26.90;99.90;;;27.39;55.12;102155.09;5000301;28;20050;-67
2023/10/01 10:20:24;;;;;;;23.95;11.25;;;27.00;99.90;;;27.43;55.18;102145.78;5012998;28;20061;-68
2023/10/01 10:23:16;;;;;;;18.38;11.20;;;27.00;99.90;;;27.40;55.80;102143.22;5000059;28;20058;-67
2023/10/01 10:25:46;;;;;;;21.85;11.73;;;27.00;99.90;;;27.42;55.74;102147.63;5012203;28;20080;-66
2023/10/01 10:28:25;;;;;;;19.95;11.02;;;27.00;99.90;;;27.32;55.31;102159.03;4997355;28;20038;-66
2023/10/01 10:31:32;;;;;;;19.77;10.98;;;26.90;99.90;;;27.37;55.66;102163.28;4999240;28;20046;-67
2023/10/01 10:34:30;;;;;;;19.60;10.65;;;26.90;99.90;;;27.37;55.63;102152.41;5012941;28;20081;-68
2023/10/01 10:36:58;;;;;;;21.90;10.82;;;26.90;99.90;;;27.32;55.51;102150.88;4999106;28;20085;-68
2023/10/01 10:40:26;;;;;;;18.52;10.73;;;26.90;99.90;;;27.45;56.45;102154.72;5013202;28;20188;-68
2023/10/01 10:43:19;;;;;;;20.60;11.50;;;26.90;99.90;;;27.37;55.11;102151.56;5000385;28;20053;-67
2023/10/01 10:45:59;;;;;;;19.00;10.73;;;27.00;99.90;;;27.36;55.68;102156.13;4998550;28;20057;-67